Time;durP1;ratioP1;P1;durP2;ratioP2;P2;SDS_P1;SDS_P2;PMS_P1;PMS_P2;Temp;Humidity;BMP_temperature;BMP_pressure;BME280_temperature;BME280_humidity;BME280_pressure;Samples;Min_cycle;Max_cycle;Signal;HPM_P1;HPM_P2
2022/05/04 00:00:13;;;;;;;30.67;20.40;;;;;;;11.04;68.90;101250.66;5056790;28;20071;-46
2022/05/04 00:02:41;;;;;;;31.88;19.15;;;;;;;10.91;68.50;101220.84;5054453;28;20035;-45
2022/05/04 00:05:08;;;;;;;28.85;18.85;;;;;;;11.09;68.34;101246.59;5036351;28;20454;-45
2022/05/04 00:07:33;;;;;;;28.60;18.30;;;;;;;10.89;68.84;101219.38;5054382;28;20529;-46
2022/05/04 00:09:59;;;;;;;26.50;17.25;;;;;;;10.94;69.05;101242.00;5036203;28;20069;-47
2022/05/04 00:12:25;;;;;;;29.23;18.13;;;;;;;11.04;68.80;101242.59;5054146;28;20037;-46
2022/05/04 00:14:52;;;;;;;30.00;18.52;;;;;;;11.07;68.33;101240.56;5053554;28;20410;-48
2022/05/04 00:17:17;;;;;;;30.25;18.13;;;;;;;11.04;68.37;101247.97;5054647;28;20028;-50
2022/05/04 00:19:43;;;;;;;31.60;19.50;;;;;;;10.99;68.88;101239.59;5056110;28;20028;-47
2022/05/04 00:22:09;;;;;;;26.17;17.50;;;;;;;11.02;68.71;101246.50;5054865;28;20047;-47
2022/05/04 00:24:35;;;;;;;32.08;19.60;;;;;;;10.98;68.25;101232.56;5053912;28;20028;-47
2022/05/04 00:27:01;;;;;;;27.73;18.83;;;;;;;11.06;68.01;101245.13;5053702;28;20028;-47
2022/05/04 00:29:26;;;;;;;32.85;18.30;;;;;;;11.03;68.05;101238.25;5054077;28;20052;-44
2022/05/04 00:31:52;;;;;;;28.17;16.42;;;;;;;11.01;67.95;101251.03;5051599;28;20111;-46
2022/05/04 00:34:18;;;;;;;26.23;17.42;;;;;;;10.94;68.04;101239.31;5053531;28;20029;-46
2022/05/04 00:36:44;;;;;;;25.08;16.85;;;;;;;10.89;67.99;101233.63;5053195;28;20029;-44
2022/05/04 00:39:09;;;;;;;25.33;16.05;;;;;;;10.98;67.70;101250.56;5035018;28;20056;-45
2022/05/04 00:41:35;;;;;;;22.80;15.27;;;;;;;10.93;67.74;101244.88;5052978;28;20414;-45
2022/05/04 00:44:01;;;;;;;25.85;14.98;;;;;;;10.84;67.53;101242.22;5053204;28;20039;-44
2022/05/04 00:46:27;;;;;;;22.80;14.60;;;;;;;10.92;67.50;101235.13;5052899;28;20175;-45
2022/05/04 00:48:53;;;;;;;17.85;13.93;;;;;;;10.91;66.98;101242.34;5052771;28;20028;-45
2022/05/04 00:51:19;;;;;;;21.00;13.25;;;;;;;10.88;67.43;101245.38;5052753;28;20388;-45
2022/05/04 00:53:45;;;;;;;19.20;12.35;;;;;;;10.82;67.38;101229.97;5052979;28;20033;-47
2022/05/04 00:56:12;;;;;;;23.42;12.73;;;;;;;10.78;67.44;101240.22;5064518;28;20098;-49
2022/05/04 00:58:55;;;;;;;17.92;13.15;;;;;;;10.74;67.99;101240.78;5057890;28;20366;-48
2022/05/04 01:01:23;;;;;;;21.25;14.30;;;;;;;10.71;68.33;101241.13;5053646;28;20025;-47
2022/05/04 01:03:49;;;;;;;23.15;13.90;;;;;;;10.71;68.60;101238.44;5037139;28;20029;-45
2022/05/04 01:06:15;;;;;;;22.10;13.43;;;;;;;10.62;68.99;101232.25;5054652;28;20040;-46
2022/05/04 01:08:41;;;;;;;21.33;13.10;;;;;;;10.52;70.18;101239.69;5053674;28;20033;-46
2022/05/04 01:11:06;;;;;;;21.23;14.43;;;;;;;10.21;69.75;101179.53;5054223;28;20430;-46
2022/05/04 01:13:32;;;;;;;21.95;12.98;;;;;;;10.58;68.84;101239.81;5053734;28;20067;-45
2022/05/04 01:15:58;;;;;;;19.48;14.45;;;;;;;10.38;70.17;101225.13;5054197;28;20082;-46
2022/05/04 01:18:24;;;;;;;24.85;14.65;;;;;;;10.38;69.84;101226.00;5036358;28;20583;-46
2022/05/04 01:20:50;;;;;;;18.95;14.48;;;;;;;10.41;69.67;101220.25;5036236;28;20500;-45
2022/05/04 01:23:17;;;;;;;17.85;14.73;;;;;;;10.40;69.69;101220.44;5053382;28;20112;-45
2022/05/04 01:25:43;;;;;;;30.40;16.25;;;;;;;10.54;69.49;101227.75;5052841;28;20033;-47
2022/05/04 01:28:08;;;;;;;23.42;13.90;;;;;;;10.45;69.09;101215.38;5034751;28;20072;-45
2022/05/04 01:30:35;;;;;;;19.27;14.50;;;;;;;10.50;69.41;101226.44;5034552;28;20626;-46
2022/05/04 01:33:01;;;;;;;25.13;15.27;;;;;;;10.32;69.71;101210.56;5052529;28;20049;-45
2022/05/04 01:35:27;;;;;;;27.80;14.68;;;;;;;10.40;69.43;101217.75;5052273;28;20081;-46
2022/05/04 01:37:53;;;;;;;20.63;13.55;;;;;;;10.49;69.27;101222.06;5052690;28;20397;-46
2022/05/04 01:40:19;;;;;;;24.13;15.55;;;;;;;10.36;69.25;101209.19;5034736;28;20052;-47
2022/05/04 01:42:45;;;;;;;23.30;16.05;;;;;;;10.30;69.52;101211.72;5036128;28;20465;-45
2022/05/04 01:45:11;;;;;;;20.42;13.75;;;;;;;10.20;70.02;101185.09;5055846;28;20056;-44
2022/05/04 01:47:38;;;;;;;17.08;13.48;;;;;;;10.39;70.16;101214.22;5055900;28;20036;-45
2022/05/04 01:50:04;;;;;;;27.15;15.52;;;;;;;10.47;69.27;101216.03;5055873;28;20108;-46
2022/05/04 01:52:30;;;;;;;27.60;16.45;;;;;;;10.33;69.51;101185.41;5055616;28;20083;-45
2022/05/04 01:54:59;;;;;;;27.42;15.95;;;;;;;10.49;69.48;101211.31;5038259;28;20422;-48
2022/05/04 01:57:25;;;;;;;18.40;13.60;;;;;;;10.54;68.95;101208.13;5056108;28;20037;-46
2022/05/04 01:59:50;;;;;;;23.17;15.65;;;;;;;10.56;69.05;101198.88;5055931;28;20032;-46
2022/05/04 02:02:16;;;;;;;31.05;17.25;;;;;;;10.44;69.08;101209.19;5037688;28;20086;-45
2022/05/04 02:04:42;;;;;;;25.10;16.77;;;;;;;10.32;70.28;101223.16;5055539;28;20029;-47
2022/05/04 02:07:09;;;;;;;27.05;17.45;;;;;;;10.03;72.07;101197.72;5055513;28;20039;-44
2022/05/04 02:09:36;;;;;;;29.40;18.17;;;;;;;10.13;73.65;101229.72;5055536;28;20404;-47
2022/05/04 02:12:03;;;;;;;42.47;19.67;;;;;;;10.02;75.08;101230.91;5055647;28;20457;-45
2022/05/04 02:14:31;;;;;;;38.47;18.27;;;;;;;10.01;75.14;101218.50;5055804;28;20041;-45
2022/05/04 02:16:58;;;;;;;33.67;19.77;;;;;;;9.84;76.09;101210.50;5037405;28;20032;-45
2022/05/04 02:19:23;;;;;;;33.25;20.20;;;;;;;9.80;77.79;101219.06;5055598;28;20033;-45
2022/05/04 02:21:49;;;;;;;30.75;19.23;;;;;;;9.82;77.74;101217.03;5055491;28;20032;-45
2022/05/04 02:24:15;;;;;;;33.15;20.88;;;;;;;9.80;77.81;101211.84;5037451;28;20032;-45
2022/05/04 02:26:41;;;;;;;35.42;19.30;;;;;;;9.71;77.41;101187.88;5055798;28;20032;-45
2022/05/04 02:29:06;;;;;;;30.10;20.30;;;;;;;9.84;77.66;101193.56;5053877;28;20048;-45
2022/05/04 02:31:32;;;;;;;37.17;20.77;;;;;;;9.96;76.66;101200.25;5020154;28;20033;-46
2022/05/04 02:33:58;;;;;;;30.15;19.58;;;;;;;9.92;76.69;101184.66;5053666;28;20116;-45
2022/05/04 02:39:09;;;;;;;37.50;20.58;;;;;;;9.89;76.81;101181.31;5040435;28;20033;-46
2022/05/04 02:41:35;;;;;;;30.45;18.38;;;;;;;9.91;77.84;101177.63;5037521;28;20028;-45
2022/05/04 02:44:02;;;;;;;30.65;19.15;;;;;;;9.94;77.91;101177.28;5037684;28;20060;-45
2022/05/04 02:46:29;;;;;;;35.08;22.33;;;;;;;9.74;77.69;101164.25;5054774;28;20059;-46
2022/05/04 02:48:56;;;;;;;40.45;21.58;;;;;;;9.77;79.26;101179.16;5037210;28;20060;-45
2022/05/04 02:51:22;;;;;;;35.38;23.25;;;;;;;9.82;78.44;101176.78;5055843;28;20035;-45
2022/05/04 02:53:47;;;;;;;39.67;21.55;;;;;;;9.86;78.13;101173.63;5053962;28;20100;-46
2022/05/04 02:56:15;;;;;;;34.30;22.75;;;;;;;9.85;78.02;101173.78;5036986;28;20139;-44
2022/05/04 02:58:42;;;;;;;37.00;23.40;;;;;;;9.82;77.48;101166.06;5055021;28;20381;-44
2022/05/04 03:04:07;;;;;;;42.08;24.75;;;;;;;9.76;79.08;101156.84;5039617;28;20043;-46
2022/05/04 03:06:33;;;;;;;35.95;20.73;;;;;;;9.74;79.75;101153.50;5054820;28;20037;-46
2022/05/04 03:08:59;;;;;;;35.38;22.40;;;;;;;9.74;79.40;101156.19;5053004;28;20029;-47
2022/05/04 03:14:11;;;;;;;41.25;23.30;;;;;;;9.78;79.40;101164.75;5039773;28;20020;-45
2022/05/04 03:16:37;;;;;;;42.90;25.77;;;;;;;9.64;79.61;101134.94;5036679;28;20040;-47
2022/05/04 03:19:04;;;;;;;42.13;25.70;;;;;;;9.79;79.54;101147.66;5054097;28;20021;-47
2022/05/04 03:21:30;;;;;;;45.08;25.58;;;;;;;9.84;79.26;101151.50;5054513;28;20086;-46
2022/05/04 03:23:56;;;;;;;48.13;25.48;;;;;;;9.76;79.11;101130.03;5054443;28;20025;-46
2022/05/04 03:26:24;;;;;;;52.00;26.05;;;;;;;9.94;78.71;101147.78;5053083;28;20028;-45
2022/05/04 03:28:50;;;;;;;46.42;27.30;;;;;;;9.94;78.31;101148.59;5055071;28;20466;-46
2022/05/04 03:31:16;;;;;;;40.35;26.50;;;;;;;9.97;78.46;101144.72;5037398;28;20477;-45
2022/05/04 03:33:43;;;;;;;37.22;23.90;;;;;;;10.00;78.01;101147.06;5054742;28;20028;-46
2022/05/04 03:36:11;;;;;;;52.42;28.33;;;;;;;9.95;78.14;101136.00;5055404;28;20037;-46
2022/05/04 03:38:37;;;;;;;51.85;28.63;;;;;;;9.83;78.57;101124.81;5052519;28;20073;-45
2022/05/04 03:41:04;;;;;;;50.90;27.33;;;;;;;9.85;78.61;101126.31;5054699;28;20100;-45
2022/05/04 03:43:30;;;;;;;46.47;28.15;;;;;;;9.93;78.53;101138.03;5054126;28;20481;-45
2022/05/04 03:46:12;;;;;;;44.63;28.13;;;;;;;9.77;79.00;101125.50;5055584;28;20052;-46
2022/05/04 03:48:38;;;;;;;52.92;28.75;;;;;;;9.83;78.71;101139.06;5061265;28;20033;-49
2022/05/04 03:51:04;;;;;;;61.67;31.48;;;;;;;9.73;79.66;101135.72;5069820;28;20103;-47
2022/05/04 03:53:30;;;;;;;49.08;28.70;;;;;;;9.66;80.05;101129.41;5061650;28;20458;-45
2022/05/04 03:55:56;;;;;;;51.85;31.05;;;;;;;9.71;79.83;101132.38;5055263;28;20036;-45
2022/05/04 03:58:22;;;;;;;53.08;29.67;;;;;;;9.69;80.43;101131.72;5052894;28;20025;-46
2022/05/04 04:00:48;;;;;;;46.20;28.60;;;;;;;9.61;80.56;101129.91;5053597;28;20033;-46
2022/05/04 04:03:14;;;;;;;50.38;26.42;;;;;;;9.47;80.49;101117.19;5053687;28;20057;-47
2022/05/04 04:05:39;;;;;;;51.83;31.02;;;;;;;9.62;80.16;101139.63;5054122;28;20032;-45
2022/05/04 04:08:05;;;;;;;45.67;27.15;;;;;;;9.66;79.77;101132.09;5037256;28;20036;-48
2022/05/04 04:10:31;;;;;;;50.65;26.00;;;;;;;9.68;79.04;101120.16;5022749;28;20107;-44
2022/05/04 04:12:57;;;;;;;53.17;29.52;;;;;;;9.67;78.81;101121.16;5056635;28;20121;-46
2022/05/04 04:15:22;;;;;;;55.97;31.17;;;;;;;9.62;78.39;101106.59;5056844;28;20036;-45
2022/05/04 04:17:48;;;;;;;52.90;30.05;;;;;;;9.78;78.52;101129.88;5021755;28;20029;-45
2022/05/04 04:23:01;;;;;;;58.55;32.20;;;;;;;9.67;78.82;101117.66;5042525;28;20055;-47
2022/05/04 04:25:27;;;;;;;53.38;31.45;;;;;;;9.60;79.12;101119.34;5038996;28;20050;-45
2022/05/04 04:27:52;;;;;;;55.38;31.35;;;;;;;9.62;78.78;101120.88;5056205;28;20028;-47
2022/05/04 04:30:19;;;;;;;60.47;33.13;;;;;;;9.49;79.29;101118.72;5036777;28;20468;-44
2022/05/04 04:32:45;;;;;;;55.47;31.67;;;;;;;9.44;79.79;101121.06;5056443;28;20029;-45
2022/05/04 04:35:10;;;;;;;49.28;29.95;;;;;;;9.62;79.30;101141.47;5056707;28;20033;-45
2022/05/04 04:37:36;;;;;;;62.10;32.67;;;;;;;9.58;79.05;101132.91;5040385;28;20079;-44
2022/05/04 04:40:02;;;;;;;54.45;30.73;;;;;;;9.67;78.43;101145.31;5056979;28;20025;-45
2022/05/04 04:42:28;;;;;;;55.83;30.30;;;;;;;9.62;79.33;101147.69;5054362;28;20126;-45
2022/05/04 04:44:54;;;;;;;61.75;33.78;;;;;;;9.63;79.09;101148.50;5034863;28;20469;-45
2022/05/04 04:47:20;;;;;;;56.83;31.73;;;;;;;9.59;79.89;101142.66;5037520;28;20087;-44
2022/05/04 04:49:45;;;;;;;52.08;29.15;;;;;;;9.62;79.45;101147.69;5053744;28;20464;-45
2022/05/04 04:52:11;;;;;;;49.28;29.33;;;;;;;9.46;79.17;101120.88;5053256;28;20025;-45
2022/05/04 04:54:37;;;;;;;53.45;31.23;;;;;;;9.62;79.53;101141.47;5052912;28;20124;-45
2022/05/04 04:57:03;;;;;;;46.00;28.10;;;;;;;9.66;79.20;101137.44;5051707;28;20029;-46
2022/05/04 04:59:29;;;;;;;43.25;26.95;;;;;;;9.62;79.18;101136.09;5052585;28;20469;-47
2022/05/04 05:01:55;;;;;;;58.53;30.92;;;;;;;9.59;79.94;101148.00;5052299;28;20039;-48
2022/05/04 05:04:20;;;;;;;52.42;29.40;;;;;;;9.50;80.60;101139.13;5034402;28;20075;-48
2022/05/04 05:06:46;;;;;;;67.75;35.15;;;;;;;9.58;80.60;101143.63;5052421;28;20389;-46
2022/05/04 05:09:12;;;;;;;67.40;35.70;;;;;;;9.56;80.58;101140.28;5052122;28;20076;-46
2022/05/04 05:11:37;;;;;;;77.00;37.40;;;;;;;9.56;80.71;101147.50;5052483;28;20028;-46
2022/05/04 05:16:49;;;;;;;76.82;38.92;;;;;;;9.47;81.14;101126.09;5037747;28;20397;-46
2022/05/04 05:19:14;;;;;;;76.70;40.25;;;;;;;9.55;81.49;101149.38;5056442;28;20025;-45
2022/05/04 05:21:41;;;;;;;79.47;40.47;;;;;;;9.44;81.86;101129.09;5056939;28;20342;-47
2022/05/04 05:24:07;;;;;;;78.65;39.15;;;;;;;9.55;82.06;101149.38;5054892;28;20033;-47
2022/05/04 05:26:33;;;;;;;82.40;41.38;;;;;;;9.50;82.33;101141.81;5056461;28;20035;-45
2022/05/04 05:28:58;;;;;;;75.72;38.38;;;;;;;9.64;81.25;101144.84;5056682;28;20450;-48
2022/05/04 05:31:24;;;;;;;75.50;39.72;;;;;;;9.68;81.77;101144.31;5056573;28;20032;-46
2022/05/04 05:33:50;;;;;;;88.25;41.17;;;;;;;9.71;81.64;101153.84;5056612;28;20037;-47
2022/05/04 05:36:16;;;;;;;84.22;43.00;;;;;;;9.71;81.88;101140.44;5055832;28;20112;-44
2022/05/04 05:38:42;;;;;;;92.55;43.20;;;;;;;9.79;81.94;101143.13;5057169;28;20029;-45
2022/05/04 05:41:11;;;;;;;80.70;41.30;;;;;;;9.75;81.70;101125.69;5057095;28;20025;-46
2022/05/04 05:43:37;;;;;;;92.75;45.90;;;;;;;9.94;81.45;101143.25;5056883;28;20443;-46
2022/05/04 05:46:03;;;;;;;94.88;47.13;;;;;;;9.96;81.70;101146.59;5056767;28;20441;-44
2022/05/04 05:48:29;;;;;;;94.25;47.70;;;;;;;9.94;82.33;101137.88;5056858;28;20120;-46
2022/05/04 05:50:54;;;;;;;90.78;46.20;;;;;;;10.05;81.83;101139.34;5056783;28;20033;-46
2022/05/04 05:53:22;;;;;;;99.60;49.85;;;;;;;10.00;82.20;101129.13;5023204;28;20028;-45
2022/05/04 05:55:49;;;;;;;94.00;46.92;;;;;;;10.16;81.66;101151.53;5057222;28;20029;-45
2022/05/04 05:58:15;;;;;;;97.93;47.60;;;;;;;10.22;81.79;101149.00;5055455;28;20029;-46
2022/05/04 06:00:41;;;;;;;102.15;50.55;;;;;;;10.26;82.01;101142.25;5055615;28;20083;-47
2022/05/04 06:03:07;;;;;;;96.40;47.90;;;;;;;10.38;80.92;101147.28;5057309;28;20477;-52
2022/05/04 06:05:33;;;;;;;101.13;50.05;;;;;;;10.38;81.45;101145.44;5055180;28;20089;-46
2022/05/04 06:07:59;;;;;;;86.53;45.35;;;;;;;10.41;82.07;101141.56;5056395;28;20033;-45
2022/05/04 06:10:25;;;;;;;86.55;44.40;;;;;;;10.51;81.48;101152.94;5056046;28;20025;-47
2022/05/04 06:12:54;;;;;;;108.25;52.13;;;;;;;10.53;81.53;101153.59;5038125;28;20029;-45
2022/05/04 06:15:22;;;;;;;99.15;46.95;;;;;;;10.61;81.78;101152.69;5038336;28;20036;-49
2022/05/04 06:17:48;;;;;;;109.90;53.92;;;;;;;10.70;81.09;101145.41;5055994;28;20028;-45
2022/05/04 06:20:17;;;;;;;112.93;53.55;;;;;;;10.74;81.41;101154.81;5038319;28;20024;-48
2022/05/04 06:22:46;;;;;;;105.15;52.58;;;;;;;10.82;81.75;101154.75;5055331;28;20036;-45
2022/05/04 06:25:12;;;;;;;107.30;52.47;;;;;;;10.79;80.97;101121.03;5038448;28;20042;-48
2022/05/04 06:27:38;;;;;;;89.15;47.42;;;;;;;10.96;80.50;101137.03;5038239;28;20037;-48
2022/05/04 06:35:36;;;;;;;109.47;53.17;;;;;;;11.23;80.73;101144.50;5055790;28;20029;-47
2022/05/04 06:38:02;;;;;;;119.22;57.25;;;;;;;11.28;81.00;101140.47;5056737;28;20083;-46
2022/05/04 06:40:27;;;;;;;106.63;51.58;;;;;;;11.35;80.50;101134.16;5056006;28;20032;-47
2022/05/04 06:42:53;;;;;;;112.63;56.10;;;;;;;11.52;79.42;101142.09;5054877;28;20025;-51
2022/05/04 06:45:19;;;;;;;107.43;55.30;;;;;;;11.55;80.40;101141.69;5055075;28;20059;-47
2022/05/04 06:47:47;;;;;;;110.85;56.15;;;;;;;11.67;79.59;101145.63;5055347;28;20060;-47
2022/05/04 06:50:13;;;;;;;105.88;54.92;;;;;;;11.77;79.32;101151.56;5037994;28;20350;-45
2022/05/04 06:52:40;;;;;;;105.82;56.22;;;;;;;11.79;78.93;101130.72;5054151;28;20040;-45
2022/05/04 06:55:10;;;;;;;109.78;56.88;;;;;;;11.97;78.26;101140.28;5055961;28;20028;-46
2022/05/04 06:57:36;;;;;;;105.53;55.67;;;;;;;12.14;78.12;101144.44;5055556;28;20032;-45
2022/05/04 07:00:04;;;;;;;100.50;54.97;;;;;;;12.19;77.76;101143.91;5037175;28;20148;-47
2022/05/04 07:02:35;;;;;;;103.53;55.80;;;;;;;12.33;76.93;101142.19;5054994;28;20029;-49
2022/05/04 07:05:02;;;;;;;96.35;53.60;;;;;;;12.36;77.17;101145.34;5055101;28;20032;-48
2022/05/04 07:07:28;;;;;;;94.20;53.22;;;;;;;12.47;76.37;101149.41;5055732;28;20033;-48
2022/05/04 07:09:53;;;;;;;95.88;51.03;;;;;;;12.57;76.28;101146.41;5055684;28;20040;-51
2022/05/04 07:12:20;;;;;;;98.55;52.53;;;;;;;12.46;75.84;101118.13;5037265;28;20033;-47
2022/05/04 07:14:46;;;;;;;105.40;53.03;;;;;;;12.70;75.94;101146.56;5055042;28;20025;-49
2022/05/04 07:17:12;;;;;;;100.90;53.75;;;;;;;12.68;76.45;101148.59;5055196;28;20032;-45
2022/05/04 07:19:38;;;;;;;98.05;53.97;;;;;;;12.76;75.73;101156.59;5055024;28;20033;-44
2022/05/04 07:22:04;;;;;;;96.65;51.47;;;;;;;12.84;75.22;101152.09;5055070;28;20431;-46
2022/05/04 07:24:30;;;;;;;90.88;50.25;;;;;;;12.89;75.27;101155.03;5055059;28;20036;-46
2022/05/04 07:26:56;;;;;;;91.25;50.17;;;;;;;12.89;75.04;101150.50;5037447;28;20115;-46
2022/05/04 07:29:25;;;;;;;93.10;48.63;;;;;;;12.90;74.75;101148.63;5054803;28;20024;-47
2022/05/04 07:31:51;;;;;;;89.50;49.60;;;;;;;12.99;74.74;101155.56;5054779;28;20112;-46
2022/05/04 07:34:18;;;;;;;89.93;50.03;;;;;;;12.92;74.90;101146.56;5020757;28;20116;-46
2022/05/04 07:36:45;;;;;;;92.88;51.22;;;;;;;13.08;74.98;101164.38;5055404;28;20048;-49
2022/05/04 07:42:21;;;;;;;96.65;50.30;;;;;;;13.14;74.43;101147.41;5037042;28;20029;-46
2022/05/04 07:42:40;;;;;;;89.38;50.05;;;;;;;13.23;73.98;101146.25;5039835;28;20045;-46
2022/05/04 07:44:43;;;;;;;86.28;48.58;;;;;;;13.35;73.58;101149.28;5053801;28;20033;-48
2022/05/04 07:47:09;;;;;;;96.05;50.47;;;;;;;13.45;73.45;101147.09;5055324;28;20132;-47
2022/05/04 07:49:34;;;;;;;88.63;48.70;;;;;;;13.63;73.37;101151.16;5055274;28;20029;-45
2022/05/04 07:52:00;;;;;;;84.57;47.28;;;;;;;13.67;72.96;101145.16;5055303;28;20063;-47
2022/05/04 07:54:28;;;;;;;78.40;42.15;;;;;;;13.87;72.74;101152.53;5055143;28;20090;-46
2022/05/04 07:56:57;;;;;;;85.68;47.42;;;;;;;14.02;72.53;101152.44;5037357;28;20029;-46
2022/05/04 07:59:22;;;;;;;80.65;45.35;;;;;;;13.85;72.16;101133.00;5055913;28;20031;-48
2022/05/04 08:04:34;;;;;;;69.38;42.22;;;;;;;14.24;71.05;101155.88;5041282;28;20385;-46
2022/05/04 08:07:01;;;;;;;76.85;42.28;;;;;;;14.33;71.00;101151.94;5038456;28;20060;-47
2022/05/04 08:09:27;;;;;;;64.50;37.55;;;;;;;14.46;70.79;101119.56;5038524;28;20497;-46
2022/05/04 08:11:53;;;;;;;69.10;39.83;;;;;;;14.78;69.97;101136.09;5054678;28;20357;-46
2022/05/04 08:14:19;;;;;;;58.63;36.45;;;;;;;14.84;68.46;101139.84;5054900;28;20025;-47
2022/05/04 08:16:46;;;;;;;60.28;35.67;;;;;;;14.79;69.52;101134.25;5054344;28;20025;-45
2022/05/04 08:19:12;;;;;;;54.45;32.30;;;;;;;14.68;68.60;101135.69;5054123;28;20047;-48
2022/05/04 08:21:37;;;;;;;50.08;30.88;;;;;;;14.57;68.69;101129.00;5052549;28;20388;-46
2022/05/04 08:24:04;;;;;;;45.90;28.23;;;;;;;14.72;67.83;101145.03;5053568;28;20029;-44
2022/05/04 08:26:30;;;;;;;40.35;25.90;;;;;;;14.76;66.06;101148.19;5054369;28;20467;-44
2022/05/04 08:28:56;;;;;;;37.08;24.90;;;;;;;14.94;66.04;101143.00;5035746;28;20481;-47
2022/05/04 08:31:22;;;;;;;39.00;25.02;;;;;;;15.12;65.57;101138.84;5053868;28;20090;-45
2022/05/04 08:33:49;;;;;;;38.42;24.95;;;;;;;15.26;64.23;101135.94;5052756;28;20071;-45
2022/05/04 08:36:19;;;;;;;36.63;25.02;;;;;;;15.46;64.39;101127.81;5035346;28;20552;-48
2022/05/04 08:38:45;;;;;;;39.83;26.42;;;;;;;15.78;64.15;101143.44;5054003;28;20481;-50
2022/05/04 08:41:11;;;;;;;41.97;27.23;;;;;;;15.66;62.40;101138.63;5052795;28;20085;-49
2022/05/04 08:43:39;;;;;;;33.72;23.52;;;;;;;15.71;62.82;101142.59;5035983;28;20029;-47
2022/05/04 08:46:05;;;;;;;34.45;23.02;;;;;;;15.83;63.00;101149.06;5036528;28;20075;-45
2022/05/04 08:48:37;;;;;;;32.65;22.40;;;;;;;15.96;63.09;101145.50;5054065;28;20025;-45
2022/05/04 08:51:03;;;;;;;32.53;20.05;;;;;;;16.14;62.82;101140.22;5053300;28;20029;-48
2022/05/04 08:53:30;;;;;;;33.05;21.55;;;;;;;16.24;62.07;101137.06;5053230;28;20033;-46
2022/05/04 08:55:56;;;;;;;26.20;18.70;;;;;;;16.19;62.18;101129.56;5053601;28;20103;-44
2022/05/04 08:58:22;;;;;;;26.27;19.75;;;;;;;16.02;62.64;101145.47;5053941;28;20069;-46
2022/05/04 09:00:50;;;;;;;28.65;20.40;;;;;;;15.83;62.71;101136.34;5052553;28;20048;-47
2022/05/04 09:03:34;;;;;;;27.25;19.00;;;;;;;15.64;61.77;101132.59;5053661;28;20040;-49
2022/05/04 09:06:01;;;;;;;24.30;17.88;;;;;;;15.58;62.62;101132.59;5053221;28;20037;-49
2022/05/04 09:08:27;;;;;;;29.45;17.60;;;;;;;15.75;63.69;101143.84;5052922;28;20064;-49
2022/05/04 09:10:54;;;;;;;30.73;21.13;;;;;;;15.82;62.83;101150.94;5051619;28;20128;-48
2022/05/04 09:13:20;;;;;;;27.92;18.98;;;;;;;15.98;61.94;101141.50;5054239;28;20136;-45
2022/05/04 09:15:46;;;;;;;24.38;18.67;;;;;;;16.16;61.81;101140.84;5054680;28;20024;-46
2022/05/04 09:18:16;;;;;;;25.67;18.38;;;;;;;16.15;60.65;101133.75;5054243;28;20116;-47
2022/05/04 09:20:45;;;;;;;15.68;13.15;;;;;;;16.05;60.55;101139.63;5054579;28;20025;-47
2022/05/04 09:23:32;;;;;;;17.30;13.35;;;;;;;15.97;61.43;101137.16;5054607;28;20461;-46
2022/05/04 09:26:05;;;;;;;23.80;17.90;;;;;;;15.90;62.78;101140.91;5055822;28;20124;-45
2022/05/04 09:28:32;;;;;;;17.35;15.45;;;;;;;15.81;63.54;101146.56;5036057;28;20458;-45
2022/05/04 09:31:03;;;;;;;24.58;19.52;;;;;;;15.66;64.01;101143.22;5034923;28;20025;-47
2022/05/04 09:33:32;;;;;;;23.63;17.30;;;;;;;15.58;63.93;101144.28;5053520;28;20083;-47
2022/05/04 09:36:03;;;;;;;21.40;15.88;;;;;;;15.40;63.48;101133.25;5052748;28;20029;-48
2022/05/04 09:46:55;;;;;;;24.70;16.98;;;;;;;15.37;64.02;101134.50;5056998;28;20045;-46
2022/05/04 09:49:28;;;;;;;23.23;16.00;;;;;;;15.37;64.52;101136.38;5038430;28;20028;-47
2022/05/04 09:51:54;;;;;;;27.10;20.73;;;;;;;15.27;64.65;101140.34;5073037;28;20554;-47
2022/05/04 09:54:25;;;;;;;30.67;21.58;;;;;;;15.20;64.25;101146.78;5074043;28;20036;-47
2022/05/04 09:56:56;;;;;;;29.55;20.80;;;;;;;15.14;64.75;101126.81;5073778;28;20483;-49
2022/05/04 09:59:25;;;;;;;31.77;22.52;;;;;;;15.28;64.81;101144.72;5071823;28;20021;-45
2022/05/04 10:01:52;;;;;;;37.25;24.83;;;;;;;15.40;65.03;101142.22;5055643;28;20024;-46
2022/05/04 10:04:20;;;;;;;38.65;24.55;;;;;;;15.45;64.76;101136.16;5076291;28;20417;-47
2022/05/04 10:06:48;;;;;;;40.85;28.25;;;;;;;15.51;64.53;101145.31;5077781;28;20029;-50
2022/05/04 10:09:14;;;;;;;41.08;28.90;;;;;;;15.66;65.04;101145.94;5076538;28;20409;-47
2022/05/04 10:11:40;;;;;;;33.80;24.58;;;;;;;15.85;64.60;101145.09;5076639;28;20042;-48
2022/05/04 10:14:10;;;;;;;29.70;20.17;;;;;;;15.90;63.92;101141.75;5078718;28;20032;-46
2022/05/04 10:16:43;;;;;;;30.23;21.50;;;;;;;15.78;64.27;101148.84;5078480;28;20333;-46
2022/05/04 10:19:17;;;;;;;31.20;21.75;;;;;;;15.70;65.05;101146.34;5046058;28;20377;-49
2022/05/04 10:21:46;;;;;;;28.00;20.50;;;;;;;15.54;65.63;101140.31;5045079;28;20036;-48
2022/05/04 10:24:13;;;;;;;33.05;24.10;;;;;;;15.33;66.18;101144.09;5083069;28;20102;-51
2022/05/04 10:26:39;;;;;;;32.72;22.23;;;;;;;15.21;65.80;101143.88;5062843;28;20028;-49
2022/05/04 10:32:31;;;;;;;32.40;23.63;;;;;;;15.29;66.26;101143.66;5052208;28;20032;-46
2022/05/04 10:35:20;;;;;;;38.58;26.00;;;;;;;15.41;66.45;101138.44;5076429;28;20024;-47
2022/05/04 10:38:05;;;;;;;38.38;24.17;;;;;;;15.36;66.28;101124.72;5062918;28;20036;-48
2022/05/04 10:40:53;;;;;;;35.13;24.70;;;;;;;15.45;65.69;101130.75;5077308;28;20384;-47
2022/05/04 10:43:35;;;;;;;40.95;25.90;;;;;;;15.56;65.38;101138.22;5058837;28;20107;-47
2022/05/04 10:46:07;;;;;;;32.75;22.73;;;;;;;15.57;64.28;101134.47;5058518;28;20515;-50
2022/05/04 10:48:34;;;;;;;30.38;22.55;;;;;;;15.55;64.29;101130.34;5076360;28;20544;-47
2022/05/04 10:51:11;;;;;;;33.53;23.23;;;;;;;15.55;64.61;101133.88;5078765;28;20516;-48
2022/05/04 10:53:40;;;;;;;29.52;21.98;;;;;;;15.57;64.31;101131.78;5076937;28;20029;-46
2022/05/04 10:56:09;;;;;;;30.75;21.38;;;;;;;15.47;64.04;101131.34;5061216;28;20115;-46
2022/05/04 10:58:41;;;;;;;30.10;22.15;;;;;;;15.39;64.97;101124.28;5045497;28;20032;-45
2022/05/04 11:01:31;;;;;;;33.30;22.58;;;;;;;15.28;64.24;101131.19;5078584;28;20464;-47
2022/05/04 11:04:07;;;;;;;31.90;21.40;;;;;;;15.33;64.34;101138.66;5077305;28;20039;-47
2022/05/04 11:06:35;;;;;;;31.75;22.17;;;;;;;15.45;64.44;101134.31;5076800;28;20040;-48
2022/05/04 11:09:12;;;;;;;34.70;23.77;;;;;;;15.48;63.84;101133.03;5075929;28;20094;-48
2022/05/04 11:11:56;;;;;;;33.92;24.67;;;;;;;15.55;62.86;101135.75;5076673;28;20035;-47
2022/05/04 11:14:23;;;;;;;32.85;23.23;;;;;;;15.62;63.56;101131.13;5076414;28;20056;-48
2022/05/04 11:16:51;;;;;;;31.27;23.13;;;;;;;15.55;63.09;101135.75;5074473;28;20028;-47
2022/05/04 11:19:18;;;;;;;35.90;24.40;;;;;;;15.36;64.26;101124.72;5075918;28;20056;-47
2022/05/04 11:21:45;;;;;;;33.20;23.70;;;;;;;15.46;64.50;101132.41;5074989;28;20028;-48
2022/05/04 11:24:13;;;;;;;33.80;24.42;;;;;;;15.37;64.04;101117.44;5075009;28;20040;-46
2022/05/04 11:26:44;;;;;;;33.80;25.23;;;;;;;15.49;63.64;101130.13;5075124;28;20043;-50
2022/05/04 11:29:13;;;;;;;34.90;24.90;;;;;;;15.51;63.09;101131.78;5073369;28;20052;-47
2022/05/04 11:31:48;;;;;;;33.00;21.60;;;;;;;15.35;62.08;101093.28;5074756;28;20028;-47
2022/05/04 11:34:15;;;;;;;26.52;20.42;;;;;;;15.76;61.98;101108.44;5058042;28;20064;-45
2022/05/04 11:36:44;;;;;;;30.88;21.10;;;;;;;16.38;59.42;101116.13;5074523;28;20020;-46
2022/05/04 11:39:14;;;;;;;28.58;20.33;;;;;;;16.98;59.24;101115.81;5074621;28;20067;-46
2022/05/04 11:41:41;;;;;;;20.92;16.95;;;;;;;17.15;57.17;101097.09;5074926;28;20032;-47
2022/05/04 11:44:07;;;;;;;16.70;14.13;;;;;;;17.17;56.24;101111.28;5075297;28;20043;-47
2022/05/04 11:46:33;;;;;;;16.27;13.25;;;;;;;17.02;55.55;101101.56;5040257;28;20057;-47